sensor_id;sensor_type;location;lat;lon;timestamp;P1;durP1;ratioP1;P2;durP2;ratioP2
7729;SDS011;3908;52.310;7.230;2022-12-04T00:01:13;74.93;;;27.10;;
7729;SDS011;3908;52.310;7.230;2022-12-04T00:04:02;74.17;;;27.87;;
7729;SDS011;3908;52.310;7.230;2022-12-04T00:06:52;81.03;;;27.87;;
7729;SDS011;3908;52.310;7.230;2022-12-04T00:09:40;82.73;;;29.03;;
7729;SDS011;3908;52.310;7.230;2022-12-04T00:12:27;74.33;;;29.23;;
7729;SDS011;3908;52.310;7.230;2022-12-04T00:15:14;74.03;;;27.90;;
7729;SDS011;3908;52.310;7.230;2022-12-04T00:18:03;73.10;;;28.47;;
7729;SDS011;3908;52.310;7.230;2022-12-04T00:20:50;72.73;;;28.50;;
7729;SDS011;3908;52.310;7.230;2022-12-04T00:23:37;71.60;;;27.60;;
7729;SDS011;3908;52.310;7.230;2022-12-04T00:26:25;67.97;;;29.83;;
7729;SDS011;3908;52.310;7.230;2022-12-04T00:29:15;80.70;;;28.43;;
7729;SDS011;3908;52.310;7.230;2022-12-04T00:32:02;75.37;;;30.27;;
7729;SDS011;3908;52.310;7.230;2022-12-04T00:34:51;73.23;;;27.63;;
7729;SDS011;3908;52.310;7.230;2022-12-04T00:37:38;71.40;;;27.93;;
7729;SDS011;3908;52.310;7.230;2022-12-04T00:40:26;71.67;;;27.87;;
7729;SDS011;3908;52.310;7.230;2022-12-04T00:43:13;83.67;;;29.17;;
7729;SDS011;3908;52.310;7.230;2022-12-04T00:46:01;69.53;;;29.43;;
7729;SDS011;3908;52.310;7.230;2022-12-04T00:48:48;89.03;;;29.43;;
7729;SDS011;3908;52.310;7.230;2022-12-04T00:51:37;74.43;;;28.10;;
7729;SDS011;3908;52.310;7.230;2022-12-04T00:54:24;79.27;;;29.77;;
7729;SDS011;3908;52.310;7.230;2022-12-04T00:57:11;85.93;;;30.77;;
7729;SDS011;3908;52.310;7.230;2022-12-04T00:59:58;73.67;;;28.57;;
7729;SDS011;3908;52.310;7.230;2022-12-04T01:02:45;78.00;;;28.67;;
7729;SDS011;3908;52.310;7.230;2022-12-04T01:05:36;76.70;;;29.17;;
7729;SDS011;3908;52.310;7.230;2022-12-04T01:08:26;70.93;;;29.03;;
7729;SDS011;3908;52.310;7.230;2022-12-04T01:11:13;88.07;;;30.13;;
7729;SDS011;3908;52.310;7.230;2022-12-04T01:14:00;71.73;;;26.53;;
7729;SDS011;3908;52.310;7.230;2022-12-04T01:16:47;74.43;;;28.73;;
7729;SDS011;3908;52.310;7.230;2022-12-04T01:19:34;72.80;;;30.23;;
7729;SDS011;3908;52.310;7.230;2022-12-04T01:22:21;69.90;;;27.63;;
7729;SDS011;3908;52.310;7.230;2022-12-04T01:25:09;73.83;;;27.93;;
7729;SDS011;3908;52.310;7.230;2022-12-04T01:27:56;73.53;;;28.07;;
7729;SDS011;3908;52.310;7.230;2022-12-04T01:30:44;78.43;;;29.03;;
7729;SDS011;3908;52.310;7.230;2022-12-04T01:33:31;79.90;;;30.50;;
7729;SDS011;3908;52.310;7.230;2022-12-04T01:36:20;71.80;;;27.07;;
7729;SDS011;3908;52.310;7.230;2022-12-04T01:39:10;71.90;;;28.50;;
7729;SDS011;3908;52.310;7.230;2022-12-04T01:41:59;82.00;;;29.07;;
7729;SDS011;3908;52.310;7.230;2022-12-04T01:48:08;66.67;;;28.43;;
7729;SDS011;3908;52.310;7.230;2022-12-04T01:51:03;70.93;;;27.87;;
7729;SDS011;3908;52.310;7.230;2022-12-04T01:53:53;71.37;;;27.63;;
7729;SDS011;3908;52.310;7.230;2022-12-04T01:56:43;71.93;;;26.47;;
7729;SDS011;3908;52.310;7.230;2022-12-04T01:59:37;77.73;;;27.60;;
7729;SDS011;3908;52.310;7.230;2022-12-04T02:02:29;73.53;;;27.27;;
7729;SDS011;3908;52.310;7.230;2022-12-04T02:05:20;74.47;;;28.17;;
7729;SDS011;3908;52.310;7.230;2022-12-04T02:08:07;69.30;;;26.30;;
7729;SDS011;3908;52.310;7.230;2022-12-04T02:10:57;78.57;;;28.63;;
7729;SDS011;3908;52.310;7.230;2022-12-04T02:13:56;70.37;;;28.43;;
7729;SDS011;3908;52.310;7.230;2022-12-04T02:16:55;71.87;;;28.00;;
7729;SDS011;3908;52.310;7.230;2022-12-04T02:19:51;70.77;;;29.07;;
7729;SDS011;3908;52.310;7.230;2022-12-04T02:23:01;75.03;;;28.17;;
7729;SDS011;3908;52.310;7.230;2022-12-04T02:26:08;66.97;;;26.43;;
7729;SDS011;3908;52.310;7.230;2022-12-04T02:29:14;68.27;;;26.40;;
7729;SDS011;3908;52.310;7.230;2022-12-04T02:32:11;76.83;;;28.67;;
7729;SDS011;3908;52.310;7.230;2022-12-04T02:35:05;68.47;;;26.80;;
7729;SDS011;3908;52.310;7.230;2022-12-04T02:38:00;68.57;;;26.70;;
7729;SDS011;3908;52.310;7.230;2022-12-04T02:40:53;68.57;;;26.43;;
7729;SDS011;3908;52.310;7.230;2022-12-04T02:43:45;69.90;;;26.20;;
7729;SDS011;3908;52.310;7.230;2022-12-04T02:46:36;72.07;;;27.13;;
7729;SDS011;3908;52.310;7.230;2022-12-04T02:49:27;70.87;;;27.53;;
7729;SDS011;3908;52.310;7.230;2022-12-04T02:52:19;75.67;;;29.00;;
7729;SDS011;3908;52.310;7.230;2022-12-04T02:55:13;67.60;;;26.40;;
7729;SDS011;3908;52.310;7.230;2022-12-04T02:58:05;77.03;;;28.50;;
7729;SDS011;3908;52.310;7.230;2022-12-04T03:00:58;74.23;;;27.10;;
7729;SDS011;3908;52.310;7.230;2022-12-04T03:03:50;73.30;;;28.20;;
7729;SDS011;3908;52.310;7.230;2022-12-04T03:06:41;70.57;;;27.87;;
7729;SDS011;3908;52.310;7.230;2022-12-04T03:09:31;73.63;;;28.17;;
7729;SDS011;3908;52.310;7.230;2022-12-04T03:12:23;70.63;;;26.93;;
7729;SDS011;3908;52.310;7.230;2022-12-04T03:15:16;63.30;;;26.77;;
7729;SDS011;3908;52.310;7.230;2022-12-04T03:18:08;72.43;;;27.13;;
7729;SDS011;3908;52.310;7.230;2022-12-04T03:21:02;73.83;;;28.43;;
7729;SDS011;3908;52.310;7.230;2022-12-04T03:23:54;70.20;;;28.27;;
7729;SDS011;3908;52.310;7.230;2022-12-04T03:26:46;74.57;;;28.17;;
7729;SDS011;3908;52.310;7.230;2022-12-04T03:29:38;65.83;;;24.03;;
7729;SDS011;3908;52.310;7.230;2022-12-04T03:32:29;76.20;;;27.70;;
7729;SDS011;3908;52.310;7.230;2022-12-04T03:35:20;77.07;;;27.40;;
7729;SDS011;3908;52.310;7.230;2022-12-04T03:38:15;75.07;;;28.10;;
7729;SDS011;3908;52.310;7.230;2022-12-04T03:41:04;78.17;;;27.70;;
7729;SDS011;3908;52.310;7.230;2022-12-04T03:43:58;71.23;;;27.17;;
7729;SDS011;3908;52.310;7.230;2022-12-04T03:46:51;71.03;;;27.07;;
7729;SDS011;3908;52.310;7.230;2022-12-04T03:49:43;76.93;;;27.97;;
7729;SDS011;3908;52.310;7.230;2022-12-04T03:52:35;64.73;;;26.00;;
7729;SDS011;3908;52.310;7.230;2022-12-04T03:55:32;65.23;;;27.60;;
7729;SDS011;3908;52.310;7.230;2022-12-04T03:58:25;72.13;;;28.47;;
7729;SDS011;3908;52.310;7.230;2022-12-04T04:01:14;91.73;;;27.47;;
7729;SDS011;3908;52.310;7.230;2022-12-04T04:04:04;72.93;;;27.57;;
7729;SDS011;3908;52.310;7.230;2022-12-04T04:06:58;72.53;;;27.30;;
7729;SDS011;3908;52.310;7.230;2022-12-04T04:09:49;72.57;;;27.80;;
7729;SDS011;3908;52.310;7.230;2022-12-04T04:12:44;72.00;;;27.47;;
7729;SDS011;3908;52.310;7.230;2022-12-04T04:15:56;71.90;;;27.27;;
7729;SDS011;3908;52.310;7.230;2022-12-04T04:19:03;75.40;;;26.30;;
7729;SDS011;3908;52.310;7.230;2022-12-04T04:22:08;80.20;;;26.37;;
7729;SDS011;3908;52.310;7.230;2022-12-04T04:25:14;65.20;;;25.93;;
7729;SDS011;3908;52.310;7.230;2022-12-04T04:31:19;66.57;;;27.67;;
7729;SDS011;3908;52.310;7.230;2022-12-04T04:34:13;70.77;;;28.67;;
7729;SDS011;3908;52.310;7.230;2022-12-04T04:37:06;83.13;;;29.60;;
7729;SDS011;3908;52.310;7.230;2022-12-04T04:40:00;76.40;;;28.03;;
7729;SDS011;3908;52.310;7.230;2022-12-04T04:42:55;72.57;;;27.40;;
7729;SDS011;3908;52.310;7.230;2022-12-04T04:45:47;78.17;;;28.30;;
7729;SDS011;3908;52.310;7.230;2022-12-04T04:48:39;79.83;;;28.23;;
7729;SDS011;3908;52.310;7.230;2022-12-04T04:51:30;77.53;;;28.50;;
7729;SDS011;3908;52.310;7.230;2022-12-04T04:54:20;70.47;;;26.60;;
7729;SDS011;3908;52.310;7.230;2022-12-04T04:57:08;75.37;;;28.53;;
7729;SDS011;3908;52.310;7.230;2022-12-04T04:59:55;68.53;;;28.10;;
7729;SDS011;3908;52.310;7.230;2022-12-04T05:02:43;79.07;;;28.93;;
7729;SDS011;3908;52.310;7.230;2022-12-04T05:05:32;80.00;;;28.20;;
7729;SDS011;3908;52.310;7.230;2022-12-04T05:08:19;73.17;;;28.23;;
7729;SDS011;3908;52.310;7.230;2022-12-04T05:11:09;81.33;;;26.73;;
7729;SDS011;3908;52.310;7.230;2022-12-04T05:13:58;84.40;;;28.53;;
7729;SDS011;3908;52.310;7.230;2022-12-04T05:16:45;75.00;;;28.93;;
7729;SDS011;3908;52.310;7.230;2022-12-04T05:19:33;78.60;;;29.40;;
7729;SDS011;3908;52.310;7.230;2022-12-04T05:22:38;77.60;;;28.13;;
7729;SDS011;3908;52.310;7.230;2022-12-04T05:25:25;70.83;;;26.60;;
7729;SDS011;3908;52.310;7.230;2022-12-04T05:28:13;69.20;;;27.23;;
7729;SDS011;3908;52.310;7.230;2022-12-04T05:31:01;72.03;;;26.97;;
7729;SDS011;3908;52.310;7.230;2022-12-04T05:33:48;73.23;;;28.70;;
7729;SDS011;3908;52.310;7.230;2022-12-04T05:36:37;67.10;;;27.57;;
7729;SDS011;3908;52.310;7.230;2022-12-04T05:39:24;66.40;;;26.50;;
7729;SDS011;3908;52.310;7.230;2022-12-04T05:42:11;68.60;;;26.13;;
7729;SDS011;3908;52.310;7.230;2022-12-04T05:44:59;68.00;;;26.40;;
7729;SDS011;3908;52.310;7.230;2022-12-04T05:47:46;60.07;;;25.43;;
7729;SDS011;3908;52.310;7.230;2022-12-04T05:50:33;70.17;;;25.10;;
7729;SDS011;3908;52.310;7.230;2022-12-04T05:53:22;72.93;;;27.57;;
7729;SDS011;3908;52.310;7.230;2022-12-04T05:56:09;66.50;;;24.87;;
7729;SDS011;3908;52.310;7.230;2022-12-04T05:58:56;66.90;;;26.30;;
7729;SDS011;3908;52.310;7.230;2022-12-04T06:01:43;77.87;;;26.63;;
7729;SDS011;3908;52.310;7.230;2022-12-04T06:04:31;60.17;;;24.13;;
7729;SDS011;3908;52.310;7.230;2022-12-04T06:07:18;61.13;;;25.30;;
7729;SDS011;3908;52.310;7.230;2022-12-04T06:10:07;61.63;;;24.70;;
7729;SDS011;3908;52.310;7.230;2022-12-04T06:12:54;68.30;;;25.57;;
7729;SDS011;3908;52.310;7.230;2022-12-04T06:15:42;66.87;;;26.13;;
7729;SDS011;3908;52.310;7.230;2022-12-04T06:18:29;63.00;;;24.23;;
7729;SDS011;3908;52.310;7.230;2022-12-04T06:21:16;61.93;;;23.57;;
7729;SDS011;3908;52.310;7.230;2022-12-04T06:24:04;63.23;;;24.20;;
7729;SDS011;3908;52.310;7.230;2022-12-04T06:26:55;59.40;;;22.63;;
7729;SDS011;3908;52.310;7.230;2022-12-04T06:29:43;59.97;;;24.50;;
7729;SDS011;3908;52.310;7.230;2022-12-04T06:32:30;55.97;;;23.43;;
7729;SDS011;3908;52.310;7.230;2022-12-04T06:35:17;67.47;;;25.03;;
7729;SDS011;3908;52.310;7.230;2022-12-04T06:38:04;61.07;;;22.20;;
7729;SDS011;3908;52.310;7.230;2022-12-04T06:40:52;63.43;;;22.93;;
7729;SDS011;3908;52.310;7.230;2022-12-04T06:43:40;57.17;;;23.10;;
7729;SDS011;3908;52.310;7.230;2022-12-04T06:46:29;54.40;;;20.70;;
7729;SDS011;3908;52.310;7.230;2022-12-04T06:49:17;49.40;;;20.67;;
7729;SDS011;3908;52.310;7.230;2022-12-04T06:52:07;53.90;;;21.30;;
7729;SDS011;3908;52.310;7.230;2022-12-04T06:54:54;50.17;;;20.50;;
7729;SDS011;3908;52.310;7.230;2022-12-04T06:57:41;52.57;;;20.73;;
7729;SDS011;3908;52.310;7.230;2022-12-04T07:00:29;43.73;;;18.50;;
7729;SDS011;3908;52.310;7.230;2022-12-04T07:03:16;50.10;;;20.30;;
7729;SDS011;3908;52.310;7.230;2022-12-04T07:06:13;42.17;;;17.20;;
7729;SDS011;3908;52.310;7.230;2022-12-04T07:09:02;41.20;;;16.60;;
7729;SDS011;3908;52.310;7.230;2022-12-04T07:11:51;42.70;;;18.20;;
7729;SDS011;3908;52.310;7.230;2022-12-04T07:14:39;43.37;;;16.77;;
7729;SDS011;3908;52.310;7.230;2022-12-04T07:17:27;43.07;;;17.47;;
7729;SDS011;3908;52.310;7.230;2022-12-04T07:20:14;41.80;;;17.97;;
7729;SDS011;3908;52.310;7.230;2022-12-04T07:23:01;42.33;;;17.30;;
7729;SDS011;3908;52.310;7.230;2022-12-04T07:25:49;43.13;;;16.23;;
7729;SDS011;3908;52.310;7.230;2022-12-04T07:28:36;40.73;;;16.87;;
7729;SDS011;3908;52.310;7.230;2022-12-04T07:31:24;37.23;;;15.93;;
7729;SDS011;3908;52.310;7.230;2022-12-04T07:34:14;36.53;;;14.43;;
7729;SDS011;3908;52.310;7.230;2022-12-04T07:37:01;41.97;;;17.47;;
7729;SDS011;3908;52.310;7.230;2022-12-04T07:39:49;40.97;;;16.77;;
7729;SDS011;3908;52.310;7.230;2022-12-04T07:42:37;37.03;;;16.17;;
7729;SDS011;3908;52.310;7.230;2022-12-04T07:45:23;38.17;;;16.10;;
7729;SDS011;3908;52.310;7.230;2022-12-04T07:48:10;37.87;;;16.80;;
7729;SDS011;3908;52.310;7.230;2022-12-04T07:51:02;34.73;;;16.23;;
7729;SDS011;3908;52.310;7.230;2022-12-04T07:53:52;35.77;;;17.73;;
7729;SDS011;3908;52.310;7.230;2022-12-04T07:56:42;38.67;;;15.47;;
7729;SDS011;3908;52.310;7.230;2022-12-04T07:59:29;35.27;;;15.80;;
7729;SDS011;3908;52.310;7.230;2022-12-04T08:02:15;36.70;;;16.10;;
7729;SDS011;3908;52.310;7.230;2022-12-04T08:05:03;41.73;;;16.53;;
7729;SDS011;3908;52.310;7.230;2022-12-04T08:07:51;33.40;;;14.70;;
7729;SDS011;3908;52.310;7.230;2022-12-04T08:10:38;40.30;;;16.73;;
7729;SDS011;3908;52.310;7.230;2022-12-04T08:13:26;34.27;;;15.30;;
7729;SDS011;3908;52.310;7.230;2022-12-04T08:16:13;31.57;;;13.20;;
7729;SDS011;3908;52.310;7.230;2022-12-04T08:19:00;36.00;;;14.93;;
7729;SDS011;3908;52.310;7.230;2022-12-04T08:21:47;31.87;;;15.47;;
7729;SDS011;3908;52.310;7.230;2022-12-04T08:24:36;33.10;;;14.63;;
7729;SDS011;3908;52.310;7.230;2022-12-04T08:27:24;36.50;;;15.70;;
7729;SDS011;3908;52.310;7.230;2022-12-04T08:30:11;33.33;;;14.40;;
7729;SDS011;3908;52.310;7.230;2022-12-04T08:32:59;32.57;;;15.00;;
7729;SDS011;3908;52.310;7.230;2022-12-04T08:35:46;36.10;;;15.30;;
7729;SDS011;3908;52.310;7.230;2022-12-04T08:38:33;33.50;;;14.33;;
7729;SDS011;3908;52.310;7.230;2022-12-04T08:41:22;30.93;;;13.60;;
7729;SDS011;3908;52.310;7.230;2022-12-04T08:44:11;31.70;;;13.63;;
7729;SDS011;3908;52.310;7.230;2022-12-04T08:46:58;33.33;;;14.93;;
7729;SDS011;3908;52.310;7.230;2022-12-04T08:49:45;35.40;;;16.43;;
7729;SDS011;3908;52.310;7.230;2022-12-04T08:52:32;35.80;;;15.50;;
7729;SDS011;3908;52.310;7.230;2022-12-04T08:55:19;34.10;;;15.07;;
7729;SDS011;3908;52.310;7.230;2022-12-04T08:58:07;32.63;;;13.90;;
7729;SDS011;3908;52.310;7.230;2022-12-04T09:00:55;29.73;;;14.73;;
7729;SDS011;3908;52.310;7.230;2022-12-04T09:03:42;35.40;;;15.67;;
7729;SDS011;3908;52.310;7.230;2022-12-04T09:06:29;32.23;;;14.63;;
7729;SDS011;3908;52.310;7.230;2022-12-04T09:09:17;37.17;;;14.70;;
7729;SDS011;3908;52.310;7.230;2022-12-04T09:12:04;37.07;;;15.30;;
7729;SDS011;3908;52.310;7.230;2022-12-04T09:14:52;32.63;;;14.87;;
7729;SDS011;3908;52.310;7.230;2022-12-04T09:17:39;38.20;;;15.83;;
7729;SDS011;3908;52.310;7.230;2022-12-04T09:20:26;36.33;;;15.33;;
7729;SDS011;3908;52.310;7.230;2022-12-04T09:23:13;38.17;;;15.93;;
7729;SDS011;3908;52.310;7.230;2022-12-04T09:26:01;35.80;;;15.33;;
7729;SDS011;3908;52.310;7.230;2022-12-04T09:28:48;35.43;;;15.47;;
7729;SDS011;3908;52.310;7.230;2022-12-04T09:31:37;38.23;;;17.10;;
7729;SDS011;3908;52.310;7.230;2022-12-04T09:34:24;31.40;;;15.13;;
7729;SDS011;3908;52.310;7.230;2022-12-04T09:37:11;36.43;;;15.43;;
7729;SDS011;3908;52.310;7.230;2022-12-04T09:39:58;38.30;;;16.13;;
7729;SDS011;3908;52.310;7.230;2022-12-04T09:42:46;43.73;;;17.87;;
7729;SDS011;3908;52.310;7.230;2022-12-04T09:45:41;36.97;;;16.70;;
7729;SDS011;3908;52.310;7.230;2022-12-04T09:48:34;49.37;;;17.57;;
7729;SDS011;3908;52.310;7.230;2022-12-04T09:51:26;45.10;;;19.27;;
7729;SDS011;3908;52.310;7.230;2022-12-04T09:54:16;38.77;;;17.90;;
7729;SDS011;3908;52.310;7.230;2022-12-04T09:57:11;45.87;;;18.07;;
7729;SDS011;3908;52.310;7.230;2022-12-04T10:00:02;39.30;;;19.10;;
7729;SDS011;3908;52.310;7.230;2022-12-04T10:02:51;50.37;;;20.10;;
7729;SDS011;3908;52.310;7.230;2022-12-04T10:05:47;46.83;;;18.53;;
7729;SDS011;3908;52.310;7.230;2022-12-04T10:08:41;51.03;;;19.93;;
7729;SDS011;3908;52.310;7.230;2022-12-04T10:11:45;43.97;;;19.60;;
7729;SDS011;3908;52.310;7.230;2022-12-04T10:14:52;42.00;;;20.27;;
7729;SDS011;3908;52.310;7.230;2022-12-04T10:17:55;55.07;;;21.60;;
7729;SDS011;3908;52.310;7.230;2022-12-04T10:20:57;56.17;;;20.97;;
7729;SDS011;3908;52.310;7.230;2022-12-04T10:23:57;50.37;;;21.67;;
7729;SDS011;3908;52.310;7.230;2022-12-04T10:26:56;55.97;;;22.10;;
7729;SDS011;3908;52.310;7.230;2022-12-04T10:29:49;59.87;;;24.40;;
7729;SDS011;3908;52.310;7.230;2022-12-04T10:32:41;62.87;;;24.47;;
7729;SDS011;3908;52.310;7.230;2022-12-04T10:35:30;71.83;;;26.23;;
7729;SDS011;3908;52.310;7.230;2022-12-04T10:38:24;68.73;;;24.67;;
7729;SDS011;3908;52.310;7.230;2022-12-04T10:41:20;64.07;;;23.23;;
7729;SDS011;3908;52.310;7.230;2022-12-04T10:44:13;65.53;;;25.40;;
7729;SDS011;3908;52.310;7.230;2022-12-04T10:47:02;68.00;;;24.93;;
7729;SDS011;3908;52.310;7.230;2022-12-04T10:49:57;55.87;;;23.77;;
7729;SDS011;3908;52.310;7.230;2022-12-04T10:52:47;66.30;;;24.10;;
7729;SDS011;3908;52.310;7.230;2022-12-04T10:55:36;68.70;;;25.80;;
7729;SDS011;3908;52.310;7.230;2022-12-04T10:58:24;65.77;;;25.60;;
7729;SDS011;3908;52.310;7.230;2022-12-04T11:01:11;67.77;;;26.13;;
7729;SDS011;3908;52.310;7.230;2022-12-04T11:04:03;64.97;;;24.63;;
7729;SDS011;3908;52.310;7.230;2022-12-04T11:06:58;53.07;;;23.43;;
7729;SDS011;3908;52.310;7.230;2022-12-04T11:09:53;76.63;;;26.47;;
7729;SDS011;3908;52.310;7.230;2022-12-04T11:12:51;68.73;;;26.50;;
7729;SDS011;3908;52.310;7.230;2022-12-04T11:15:41;69.07;;;27.60;;
7729;SDS011;3908;52.310;7.230;2022-12-04T11:18:30;72.13;;;27.07;;
7729;SDS011;3908;52.310;7.230;2022-12-04T11:21:22;63.00;;;27.23;;
7729;SDS011;3908;52.310;7.230;2022-12-04T11:24:16;59.20;;;24.07;;
7729;SDS011;3908;52.310;7.230;2022-12-04T11:27:14;62.03;;;25.00;;
7729;SDS011;3908;52.310;7.230;2022-12-04T11:30:09;60.30;;;25.30;;
7729;SDS011;3908;52.310;7.230;2022-12-04T11:33:02;71.57;;;25.67;;
7729;SDS011;3908;52.310;7.230;2022-12-04T11:35:53;64.03;;;25.57;;
7729;SDS011;3908;52.310;7.230;2022-12-04T11:38:42;68.43;;;25.60;;
7729;SDS011;3908;52.310;7.230;2022-12-04T11:41:30;63.20;;;26.10;;
7729;SDS011;3908;52.310;7.230;2022-12-04T11:44:21;72.03;;;27.40;;
7729;SDS011;3908;52.310;7.230;2022-12-04T11:47:32;61.60;;;25.33;;
7729;SDS011;3908;52.310;7.230;2022-12-04T11:50:25;61.27;;;24.17;;
7729;SDS011;3908;52.310;7.230;2022-12-04T11:53:23;63.30;;;24.83;;
7729;SDS011;3908;52.310;7.230;2022-12-04T11:56:37;72.47;;;26.47;;
7729;SDS011;3908;52.310;7.230;2022-12-04T11:59:48;67.23;;;25.90;;
7729;SDS011;3908;52.310;7.230;2022-12-04T12:03:03;66.13;;;24.40;;
7729;SDS011;3908;52.310;7.230;2022-12-04T12:06:24;63.73;;;24.97;;
7729;SDS011;3908;52.310;7.230;2022-12-04T12:09:55;56.73;;;24.40;;
7729;SDS011;3908;52.310;7.230;2022-12-04T12:13:21;63.20;;;25.07;;
7729;SDS011;3908;52.310;7.230;2022-12-04T12:16:39;57.53;;;23.50;;
7729;SDS011;3908;52.310;7.230;2022-12-04T12:20:23;61.70;;;23.00;;
7729;SDS011;3908;52.310;7.230;2022-12-04T12:23:22;64.33;;;24.77;;
7729;SDS011;3908;52.310;7.230;2022-12-04T12:26:26;58.77;;;24.27;;
7729;SDS011;3908;52.310;7.230;2022-12-04T12:29:36;51.47;;;23.77;;
7729;SDS011;3908;52.310;7.230;2022-12-04T12:32:58;58.67;;;25.50;;
7729;SDS011;3908;52.310;7.230;2022-12-04T12:36:05;60.97;;;23.97;;
7729;SDS011;3908;52.310;7.230;2022-12-04T12:44:37;56.53;;;22.93;;
7729;SDS011;3908;52.310;7.230;2022-12-04T12:47:16;46.93;;;21.60;;
7729;SDS011;3908;52.310;7.230;2022-12-04T12:50:23;57.33;;;23.80;;
7729;SDS011;3908;52.310;7.230;2022-12-04T12:53:19;51.60;;;23.73;;
7729;SDS011;3908;52.310;7.230;2022-12-04T12:56:15;56.07;;;22.90;;
7729;SDS011;3908;52.310;7.230;2022-12-04T12:59:09;59.80;;;23.77;;
7729;SDS011;3908;52.310;7.230;2022-12-04T13:02:03;51.63;;;22.23;;
7729;SDS011;3908;52.310;7.230;2022-12-04T13:04:59;50.73;;;22.30;;
7729;SDS011;3908;52.310;7.230;2022-12-04T13:08:00;53.83;;;23.63;;
7729;SDS011;3908;52.310;7.230;2022-12-04T13:10:57;62.70;;;23.53;;
7729;SDS011;3908;52.310;7.230;2022-12-04T13:14:35;52.90;;;24.20;;
7729;SDS011;3908;52.310;7.230;2022-12-04T13:17:19;66.57;;;24.30;;
7729;SDS011;3908;52.310;7.230;2022-12-04T13:20:13;55.17;;;23.87;;
7729;SDS011;3908;52.310;7.230;2022-12-04T13:23:16;57.80;;;24.23;;
7729;SDS011;3908;52.310;7.230;2022-12-04T13:26:23;64.50;;;25.53;;
7729;SDS011;3908;52.310;7.230;2022-12-04T13:29:32;54.63;;;23.00;;
7729;SDS011;3908;52.310;7.230;2022-12-04T13:32:38;50.13;;;23.00;;
7729;SDS011;3908;52.310;7.230;2022-12-04T13:36:07;50.30;;;23.07;;
7729;SDS011;3908;52.310;7.230;2022-12-04T13:42:52;58.30;;;23.90;;
7729;SDS011;3908;52.310;7.230;2022-12-04T13:45:55;63.37;;;25.00;;
7729;SDS011;3908;52.310;7.230;2022-12-04T13:48:51;49.10;;;23.43;;
7729;SDS011;3908;52.310;7.230;2022-12-04T13:51:41;60.83;;;25.10;;
7729;SDS011;3908;52.310;7.230;2022-12-04T13:54:31;56.87;;;25.50;;
7729;SDS011;3908;52.310;7.230;2022-12-04T13:57:24;62.87;;;25.90;;
7729;SDS011;3908;52.310;7.230;2022-12-04T14:00:24;55.13;;;24.00;;
7729;SDS011;3908;52.310;7.230;2022-12-04T14:03:20;57.00;;;24.43;;
7729;SDS011;3908;52.310;7.230;2022-12-04T14:06:18;52.27;;;23.07;;
7729;SDS011;3908;52.310;7.230;2022-12-04T14:09:17;58.60;;;23.33;;
7729;SDS011;3908;52.310;7.230;2022-12-04T14:12:11;55.53;;;25.33;;
7729;SDS011;3908;52.310;7.230;2022-12-04T14:15:00;58.97;;;25.13;;
7729;SDS011;3908;52.310;7.230;2022-12-04T14:17:57;57.60;;;25.20;;
7729;SDS011;3908;52.310;7.230;2022-12-04T14:20:57;53.50;;;23.67;;
7729;SDS011;3908;52.310;7.230;2022-12-04T14:23:52;76.17;;;23.70;;
7729;SDS011;3908;52.310;7.230;2022-12-04T14:26:49;60.10;;;24.63;;
7729;SDS011;3908;52.310;7.230;2022-12-04T14:29:45;65.17;;;25.70;;
7729;SDS011;3908;52.310;7.230;2022-12-04T14:32:41;57.23;;;24.50;;
7729;SDS011;3908;52.310;7.230;2022-12-04T14:35:33;61.10;;;24.87;;
7729;SDS011;3908;52.310;7.230;2022-12-04T14:38:31;59.57;;;26.77;;
7729;SDS011;3908;52.310;7.230;2022-12-04T14:45:37;56.47;;;24.50;;
7729;SDS011;3908;52.310;7.230;2022-12-04T14:56:46;64.27;;;24.43;;
7729;SDS011;3908;52.310;7.230;2022-12-04T15:00:16;58.10;;;24.30;;
7729;SDS011;3908;52.310;7.230;2022-12-04T15:03:21;60.60;;;24.00;;
7729;SDS011;3908;52.310;7.230;2022-12-04T15:06:47;72.70;;;26.00;;
7729;SDS011;3908;52.310;7.230;2022-12-04T15:13:42;59.83;;;25.10;;
7729;SDS011;3908;52.310;7.230;2022-12-04T15:20:28;70.40;;;26.63;;
7729;SDS011;3908;52.310;7.230;2022-12-04T15:23:20;59.37;;;24.93;;
7729;SDS011;3908;52.310;7.230;2022-12-04T15:26:19;64.30;;;26.03;;
7729;SDS011;3908;52.310;7.230;2022-12-04T15:29:11;59.20;;;25.03;;
7729;SDS011;3908;52.310;7.230;2022-12-04T15:32:05;61.50;;;26.03;;
7729;SDS011;3908;52.310;7.230;2022-12-04T15:34:57;54.97;;;23.33;;
7729;SDS011;3908;52.310;7.230;2022-12-04T15:37:46;59.57;;;23.63;;
7729;SDS011;3908;52.310;7.230;2022-12-04T15:40:34;61.23;;;25.57;;
7729;SDS011;3908;52.310;7.230;2022-12-04T15:43:29;66.70;;;26.50;;
7729;SDS011;3908;52.310;7.230;2022-12-04T15:46:28;60.97;;;24.63;;
7729;SDS011;3908;52.310;7.230;2022-12-04T15:49:32;58.17;;;25.00;;
7729;SDS011;3908;52.310;7.230;2022-12-04T15:52:24;63.77;;;25.73;;
7729;SDS011;3908;52.310;7.230;2022-12-04T15:56:00;52.37;;;23.10;;
7729;SDS011;3908;52.310;7.230;2022-12-04T16:04:03;62.00;;;23.83;;
7729;SDS011;3908;52.310;7.230;2022-12-04T16:14:16;57.13;;;24.70;;
7729;SDS011;3908;52.310;7.230;2022-12-04T16:17:54;55.97;;;24.17;;
7729;SDS011;3908;52.310;7.230;2022-12-04T16:22:55;51.03;;;22.33;;
7729;SDS011;3908;52.310;7.230;2022-12-04T16:29:17;55.77;;;23.20;;
7729;SDS011;3908;52.310;7.230;2022-12-04T16:36:22;55.23;;;21.57;;
7729;SDS011;3908;52.310;7.230;2022-12-04T16:39:33;52.50;;;22.67;;
7729;SDS011;3908;52.310;7.230;2022-12-04T16:42:25;56.47;;;23.67;;
7729;SDS011;3908;52.310;7.230;2022-12-04T16:45:37;52.87;;;21.97;;
7729;SDS011;3908;52.310;7.230;2022-12-04T17:40:38;53.67;;;22.50;;
7729;SDS011;3908;52.310;7.230;2022-12-04T17:43:26;58.03;;;24.57;;
7729;SDS011;3908;52.310;7.230;2022-12-04T17:46:15;60.03;;;24.27;;
7729;SDS011;3908;52.310;7.230;2022-12-04T17:49:05;67.47;;;25.00;;
7729;SDS011;3908;52.310;7.230;2022-12-04T17:51:52;63.80;;;23.13;;
7729;SDS011;3908;52.310;7.230;2022-12-04T17:54:39;62.57;;;24.93;;
7729;SDS011;3908;52.310;7.230;2022-12-04T17:57:28;60.53;;;23.80;;
7729;SDS011;3908;52.310;7.230;2022-12-04T18:00:15;58.73;;;24.93;;
7729;SDS011;3908;52.310;7.230;2022-12-04T18:03:02;53.60;;;23.00;;
7729;SDS011;3908;52.310;7.230;2022-12-04T18:05:49;59.13;;;25.07;;
7729;SDS011;3908;52.310;7.230;2022-12-04T18:08:37;61.87;;;23.77;;
7729;SDS011;3908;52.310;7.230;2022-12-04T18:11:24;59.63;;;24.93;;
7729;SDS011;3908;52.310;7.230;2022-12-04T18:14:15;60.27;;;25.10;;
7729;SDS011;3908;52.310;7.230;2022-12-04T18:17:03;54.70;;;24.97;;
7729;SDS011;3908;52.310;7.230;2022-12-04T18:19:50;54.60;;;24.30;;
7729;SDS011;3908;52.310;7.230;2022-12-04T18:22:37;62.23;;;25.07;;
7729;SDS011;3908;52.310;7.230;2022-12-04T18:25:24;55.83;;;24.90;;
7729;SDS011;3908;52.310;7.230;2022-12-04T18:28:11;66.40;;;24.57;;
7729;SDS011;3908;52.310;7.230;2022-12-04T18:31:01;62.63;;;25.43;;
7729;SDS011;3908;52.310;7.230;2022-12-04T18:33:49;65.60;;;25.73;;
7729;SDS011;3908;52.310;7.230;2022-12-04T18:36:36;55.70;;;24.60;;
7729;SDS011;3908;52.310;7.230;2022-12-04T18:39:25;51.53;;;22.47;;
7729;SDS011;3908;52.310;7.230;2022-12-04T18:42:12;58.23;;;24.50;;
7729;SDS011;3908;52.310;7.230;2022-12-04T18:44:59;57.30;;;23.37;;
7729;SDS011;3908;52.310;7.230;2022-12-04T18:47:47;61.30;;;25.73;;
7729;SDS011;3908;52.310;7.230;2022-12-04T18:50:34;54.90;;;24.93;;
7729;SDS011;3908;52.310;7.230;2022-12-04T18:53:21;53.97;;;24.13;;
7729;SDS011;3908;52.310;7.230;2022-12-04T18:56:09;55.07;;;24.27;;
7729;SDS011;3908;52.310;7.230;2022-12-04T18:58:57;51.30;;;23.87;;
7729;SDS011;3908;52.310;7.230;2022-12-04T19:01:45;56.73;;;23.63;;
7729;SDS011;3908;52.310;7.230;2022-12-04T19:04:35;62.80;;;24.27;;
7729;SDS011;3908;52.310;7.230;2022-12-04T19:07:22;56.77;;;24.07;;
7729;SDS011;3908;52.310;7.230;2022-12-04T19:10:09;51.60;;;24.07;;
7729;SDS011;3908;52.310;7.230;2022-12-04T19:12:56;50.67;;;22.70;;